createdAt,value
2022-08-01T00:04:58.948Z,17.36
2022-08-01T00:10:04.802Z,17.42
2022-08-01T00:15:11.098Z,17.36
2022-08-01T00:20:16.744Z,17.33
2022-08-01T00:25:34.192Z,17.37
2022-08-01T00:30:38.735Z,17.21
2022-08-01T00:35:42.919Z,17.26
2022-08-01T00:40:48.453Z,17.10
2022-08-01T00:45:52.461Z,17.15
2022-08-01T00:50:56.527Z,17.10
2022-08-01T00:56:02.255Z,17.06
2022-08-01T01:01:06.363Z,16.95
2022-08-01T01:06:24.136Z,16.89
2022-08-01T01:11:35.324Z,16.78
2022-08-01T01:16:41.867Z,16.71
2022-08-01T01:22:14.995Z,16.88
2022-08-01T01:27:26.979Z,16.76
2022-08-01T01:32:35.585Z,16.67
2022-08-01T01:37:41.865Z,16.36
2022-08-01T01:42:46.840Z,16.23
2022-08-01T01:47:53.757Z,16.24
2022-08-01T01:52:59.057Z,16.53
2022-08-01T01:58:03.785Z,16.30
2022-08-01T02:03:14.214Z,16.00
2022-08-01T02:08:19.627Z,16.27
2022-08-01T02:13:24.133Z,16.91
2022-08-01T02:18:29.890Z,16.71
2022-08-01T02:23:35.352Z,16.23
2022-08-01T02:28:45.531Z,15.68
2022-08-01T02:33:58.260Z,15.22
2022-08-01T02:39:05.503Z,15.43
2022-08-01T02:44:11.711Z,14.99
2022-08-01T02:49:20.561Z,14.79
2022-08-01T02:54:25.837Z,14.50
2022-08-01T02:59:31.275Z,14.47
2022-08-01T03:04:40.247Z,14.27
2022-08-01T03:09:47.205Z,14.14
2022-08-01T03:14:53.976Z,13.81
2022-08-01T03:20:01.279Z,13.90
2022-08-01T03:25:05.310Z,13.78
2022-08-01T03:30:11.580Z,13.67
2022-08-01T03:35:17.279Z,13.52
2022-08-01T03:40:27.027Z,13.28
2022-08-01T03:45:35.204Z,13.23
2022-08-01T03:50:43.631Z,13.14
2022-08-01T03:55:47.866Z,13.02
2022-08-01T04:00:52.205Z,13.04
2022-08-01T04:05:57.820Z,13.19
2022-08-01T04:11:15.908Z,13.45
2022-08-01T04:16:28.780Z,13.63
2022-08-01T04:21:34.991Z,13.85
2022-08-01T04:26:40.539Z,14.20
2022-08-01T04:31:47.557Z,14.70
2022-08-01T04:36:55.871Z,15.04
2022-08-01T04:42:01.296Z,15.22
2022-08-01T04:47:08.907Z,15.55
2022-08-01T04:52:18.803Z,15.87
2022-08-01T04:57:24.690Z,16.19
2022-08-01T05:02:30.137Z,16.50
2022-08-01T05:07:44.185Z,16.91
2022-08-01T05:12:49.735Z,17.18
2022-08-01T05:17:53.673Z,17.23
2022-08-01T05:22:59.307Z,17.36
2022-08-01T05:28:03.337Z,18.32
2022-08-01T05:33:07.497Z,18.78
2022-08-01T05:38:14.841Z,19.10
2022-08-01T05:43:19.122Z,19.58
2022-08-01T05:48:23.202Z,19.41
2022-08-01T05:53:28.778Z,20.13
2022-08-01T05:58:32.958Z,19.81
2022-08-01T06:03:36.959Z,19.32
2022-08-01T06:08:42.441Z,19.14
2022-08-01T06:13:48.868Z,18.86
2022-08-01T06:18:56.627Z,19.34
2022-08-01T06:24:02.480Z,19.04
2022-08-01T06:29:06.493Z,19.44
2022-08-01T06:34:10.517Z,19.69
2022-08-01T06:39:15.904Z,20.59
2022-08-01T06:44:19.907Z,20.70
2022-08-01T06:49:23.916Z,20.31
2022-08-01T06:54:29.426Z,21.03
2022-08-01T06:59:33.398Z,19.91
2022-08-01T07:04:37.650Z,19.99
2022-08-01T07:09:43.611Z,20.37
2022-08-01T07:14:47.745Z,20.17
2022-08-01T07:19:51.736Z,20.20
2022-08-01T07:24:57.092Z,20.39
2022-08-01T07:30:01.598Z,20.16
2022-08-01T07:35:06.285Z,20.24
2022-08-01T07:40:13.059Z,20.51
2022-08-01T07:45:17.230Z,21.11
2022-08-01T07:50:21.732Z,20.90
2022-08-01T07:55:27.384Z,21.36
2022-08-01T08:00:31.282Z,20.84
2022-08-01T08:05:59.010Z,21.83
2022-08-01T08:11:01.370Z,23.21
2022-08-01T08:16:05.743Z,22.27
2022-08-01T08:21:09.529Z,24.71
2022-08-01T08:26:14.808Z,24.37
2022-08-01T08:31:50.605Z,25.13
2022-08-01T08:36:47.648Z,24.69
2022-08-01T08:41:53.478Z,26.35
2022-08-01T08:46:59.821Z,25.89
2022-08-01T08:52:05.145Z,26.41
2022-08-01T08:57:12.890Z,25.34
2022-08-01T09:02:18.837Z,24.86
2022-08-01T09:07:23.901Z,25.51
2022-08-01T09:12:29.590Z,25.17
2022-08-01T09:17:43.391Z,24.06
2022-08-01T09:22:48.895Z,25.11
2022-08-01T09:28:06.783Z,25.63
2022-08-01T09:33:17.752Z,26.42
2022-08-01T09:38:23.985Z,26.61
2022-08-01T09:43:31.470Z,25.79
2022-08-01T09:48:35.779Z,27.15
2022-08-01T09:53:50.954Z,28.90
2022-08-01T09:59:02.327Z,27.96
2022-08-01T10:14:30.416Z,26.76
2022-08-01T10:19:36.625Z,27.02
2022-08-01T10:24:41.579Z,25.86
2022-08-01T10:30:05.631Z,27.90
2022-08-01T10:35:17.034Z,27.44
2022-08-01T10:40:42.081Z,28.96
2022-08-01T10:45:47.464Z,28.17
2022-08-01T10:50:55.419Z,28.72
2022-08-01T10:56:02.546Z,27.71
2022-08-01T11:01:25.804Z,29.38
2022-08-01T11:06:48.420Z,28.46
2022-08-01T11:12:06.319Z,29.37
2022-08-01T11:17:38.109Z,28.12
2022-08-01T11:23:26.312Z,29.25
2022-08-01T11:28:35.554Z,29.17
2022-08-01T11:33:51.829Z,28.45
2022-08-01T11:39:20.542Z,28.95
2022-08-01T11:44:28.392Z,28.87
2022-08-01T11:49:49.118Z,29.24
2022-08-01T11:54:55.791Z,29.49
2022-08-01T12:00:01.544Z,28.54
2022-08-01T12:05:25.000Z,26.02
2022-08-01T12:10:33.341Z,27.07
2022-08-01T12:15:40.611Z,25.91
2022-08-01T12:20:56.672Z,28.32
2022-08-01T12:26:02.624Z,27.85
2022-08-01T12:31:06.413Z,27.66
2022-08-01T12:36:14.582Z,28.76
2022-08-01T12:41:19.304Z,27.95
2022-08-01T12:46:23.559Z,28.31
2022-08-01T12:51:29.083Z,27.60
2022-08-01T12:56:36.069Z,28.47
2022-08-01T13:01:41.180Z,27.88
2022-08-01T13:06:46.700Z,28.96
2022-08-01T13:11:58.999Z,28.89
2022-08-01T13:17:08.702Z,28.69
2022-08-01T13:22:16.363Z,28.64
2022-08-01T13:27:26.360Z,26.91
2022-08-01T13:32:32.347Z,27.21
2022-08-01T13:37:38.689Z,27.14
2022-08-01T13:42:42.874Z,25.61
2022-08-01T13:48:04.204Z,25.26
2022-08-01T13:53:13.060Z,26.70
2022-08-01T13:58:17.172Z,25.79
2022-08-01T14:03:21.559Z,24.86
2022-08-01T14:08:38.743Z,24.88
2022-08-01T14:13:45.142Z,24.28
2022-08-01T14:18:51.041Z,24.38
2022-08-01T14:23:56.436Z,24.44
2022-08-01T14:29:00.421Z,25.61
2022-08-01T14:34:04.847Z,25.41
2022-08-01T14:39:14.871Z,24.33
2022-08-01T14:44:19.136Z,25.18
2022-08-01T14:49:23.228Z,25.56
2022-08-01T14:54:29.444Z,25.42
2022-08-01T14:59:33.544Z,25.01
2022-08-01T15:04:37.558Z,25.46
2022-08-01T15:09:42.997Z,25.47
2022-08-01T15:14:51.717Z,25.05
2022-08-01T15:19:57.010Z,24.59
2022-08-01T15:25:05.413Z,24.72
2022-08-01T15:30:10.199Z,25.12
2022-08-01T15:35:14.186Z,24.53
2022-08-01T15:40:19.629Z,24.57
2022-08-01T15:50:48.099Z,24.69
2022-08-01T15:55:53.578Z,23.92
2022-08-01T16:00:57.567Z,23.55
2022-08-01T16:06:01.666Z,23.61
2022-08-01T16:11:07.002Z,23.35
2022-08-01T16:16:11.565Z,23.71
2022-08-01T16:21:15.782Z,23.44
2022-08-01T16:26:27.129Z,23.13
2022-08-01T16:31:37.375Z,22.82
2022-08-01T16:36:55.723Z,22.70
2022-08-01T16:42:00.998Z,22.37
2022-08-01T16:47:06.145Z,22.10
2022-08-01T16:52:10.562Z,21.99
2022-08-01T16:57:16.421Z,22.04
2022-08-01T17:02:20.641Z,22.07
2022-08-01T17:07:24.656Z,22.13
2022-08-01T17:12:30.061Z,22.08
2022-08-01T17:17:34.082Z,22.13
2022-08-01T17:22:38.030Z,21.78
2022-08-01T17:27:43.382Z,21.77
2022-08-01T17:32:48.122Z,21.74
2022-08-01T17:37:52.156Z,21.70
2022-08-01T17:42:57.504Z,21.62
2022-08-01T17:48:01.519Z,21.30
2022-08-01T17:53:05.478Z,21.04
2022-08-01T17:58:13.033Z,20.97
2022-08-01T18:03:23.132Z,21.05
2022-08-01T18:08:34.445Z,20.99
2022-08-01T18:13:41.083Z,20.90
2022-08-01T18:18:45.092Z,20.90
2022-08-01T18:23:51.780Z,20.91
2022-08-01T18:28:57.224Z,20.89
2022-08-01T18:34:02.060Z,20.79
2022-08-01T18:39:10.170Z,20.60
2022-08-01T18:44:17.773Z,20.61
2022-08-01T18:49:21.826Z,20.46
2022-08-01T18:54:27.406Z,20.10
2022-08-01T18:59:32.997Z,19.74
2022-08-01T19:04:37.050Z,19.93
2022-08-01T19:09:41.092Z,19.94
2022-08-01T19:14:46.894Z,20.10
2022-08-01T19:19:55.685Z,20.16
2022-08-01T19:24:59.595Z,20.06
2022-08-01T19:30:07.229Z,20.02
2022-08-01T19:35:13.184Z,20.03
2022-08-01T19:40:26.188Z,20.08
2022-08-01T19:45:34.633Z,20.10
2022-08-01T19:50:43.773Z,20.05
2022-08-01T19:55:48.624Z,20.11
2022-08-01T20:00:54.099Z,20.02
2022-08-01T20:05:58.112Z,19.99
2022-08-01T20:11:11.790Z,19.91
2022-08-01T20:16:20.361Z,19.80
2022-08-01T20:21:26.317Z,19.79
2022-08-01T20:26:31.937Z,19.82
2022-08-01T20:31:44.022Z,19.69
2022-08-01T20:36:56.481Z,19.56
2022-08-01T20:42:02.593Z,19.47
2022-08-01T20:47:08.387Z,19.42
2022-08-01T20:52:13.002Z,19.40
2022-08-01T20:57:23.627Z,19.29
2022-08-01T21:02:47.754Z,19.34
2022-08-01T21:07:53.267Z,19.03
2022-08-01T21:13:04.023Z,19.04
2022-08-01T21:18:15.200Z,19.04
2022-08-01T21:23:26.185Z,18.71
2022-08-01T21:28:30.194Z,18.48
2022-08-01T21:33:36.762Z,18.10
2022-08-01T21:39:01.948Z,18.03
2022-08-01T21:44:06.275Z,18.17
2022-08-01T21:49:12.670Z,18.16
2022-08-01T21:54:25.537Z,18.22
2022-08-01T21:59:37.160Z,18.44
2022-08-01T22:04:46.473Z,18.36
2022-08-01T22:09:51.975Z,18.45
2022-08-01T22:14:59.161Z,18.34
2022-08-01T22:20:05.781Z,18.46
2022-08-01T22:25:10.313Z,18.41
2022-08-01T22:30:16.363Z,18.55
2022-08-01T22:35:21.760Z,18.46
2022-08-01T22:40:25.930Z,18.41
2022-08-01T22:45:39.375Z,18.34
2022-08-01T22:50:47.779Z,18.19
2022-08-01T22:55:58.782Z,17.90
2022-08-01T23:01:07.779Z,17.90
2022-08-01T23:06:16.003Z,17.49
2022-08-01T23:11:21.436Z,17.17
2022-08-01T23:16:26.678Z,16.70
2022-08-01T23:21:37.575Z,16.41
2022-08-01T23:26:44.136Z,16.12
2022-08-01T23:32:00.309Z,16.03
2022-08-01T23:37:09.150Z,15.77
2022-08-01T23:42:14.360Z,15.72
2022-08-01T23:47:18.595Z,15.83
2022-08-01T23:52:24.009Z,16.07
2022-08-01T23:57:32.049Z,15.60
